Tropical Cyclones
[Index]
Main Index Home Page Stock Weather Photos Extreme Storms Discussion Storm News and Storm Chasing Reports Tropical Cyclones / Hurricanes / Typhoons Weather Data and Links Wild Fires / Bushfires Weather Observation Techniques Weather Picture Catalogue Tornado Pictures and Reports Stock Video Footage and DVDs for sale
Season 2017-2018 Tropical Cyclone MARCUS Track Map
Season 2017-2018 Summaries (Operational Data): [AU] [SIO] [SPAC] [SH]
<<- Previous TC | 2017-2018 Season | Next TC ->>

click for intensity scale information  Lat/long Grid: Show Hide

 Date Labels: Show Hide

Operational Tropical Cyclone Data : JTWC Advisories

Name: MARCUS
Number: 1815

12 Mar 2018 12:00 UTC to 25 Mar 2018 00:00 UTC

    date/time    lat    long     hPa   cat  kts
2018-03-12 12   10.0   131.8    1010         15          
2018-03-12 18   10.0   132.1    1008         15          
2018-03-13 00   10.0   132.6    1008         15          
2018-03-13 06   10.0   133.0    1007         20          
2018-03-13 12    8.8   129.8    1007         20          
2018-03-13 18    8.5   128.7    1005         20          
2018-03-14 00    8.8   128.9    1006         20          
2018-03-14 06    9.0   129.2    1007         20          
2018-03-14 12    9.0   129.6    1006         20          
2018-03-14 18    9.0   130.0    1005         20          
2018-03-15 00    9.0   130.4    1005         25          
2018-03-15 06    9.3   131.3    1004         30          
2018-03-15 12    9.6   131.9    1004         30          
2018-03-15 18   10.1   132.3     996    1    35          
2018-03-16 00   10.5   132.4    1001    1    40          
2018-03-16 06   10.8   132.2    1001    1    40          
2018-03-16 12   11.2   131.9    1001    1    40          
2018-03-16 18   11.7   131.6    1001    1    40          
2018-03-17 00   12.4   131.1     996    1    45          
2018-03-17 06   13.0   130.0     998    1    45          
2018-03-17 12   13.5   129.3     989    1    45          
2018-03-17 18   13.9   128.6     985    2    50          
2018-03-18 00   14.2   127.8     994    2    55          
2018-03-18 06   14.6   126.6     995    2    50          
2018-03-18 12   15.0   125.3     998    1    45          
2018-03-18 18   15.0   124.3     997    2    50          
2018-03-19 00   15.2   123.4     988    3    65          
2018-03-19 06   15.5   122.6     963    3    80          
2018-03-19 12   15.6   121.2     963    4    95          
2018-03-19 18   15.3   119.9     959    4   100          
2018-03-20 00   15.1   118.4     955    4   105          
2018-03-20 06   14.8   116.7     957    4   105          
2018-03-20 12   14.5   115.2     955    5   110          
2018-03-20 18   14.6   113.8     946    5   115          
2018-03-21 00   14.5   112.4     940    5   120          
2018-03-21 06   14.8   110.9     935    5   125          
2018-03-21 12   15.0   109.5     922    5   135          
2018-03-21 18   15.5   108.4     918    5   140          
2018-03-22 00   15.9   107.4     917    5   140          
2018-03-22 06   16.7   106.6     922    5   135          
2018-03-22 12   17.6   106.3     932    5   125          
2018-03-22 18   18.8   106.0     937    5   115          
2018-03-23 00   19.9   105.9     951    4   105          
2018-03-23 06   21.2   105.8     958    4    95          
2018-03-23 12   22.3   106.0     968    3    80          
2018-03-23 18   23.7   106.6     981    2    60          
2018-03-24 00   25.3   107.3     941    2    55          
2018-03-24 06   26.9   107.6     996    1    35          
2018-03-24 12   27.9   108.0    1000         30          
2018-03-24 18   28.8   108.4     998         30          
2018-03-25 00   29.3   108.9     997         30          
Winds are 10-min average.

Tropical cyclone tracks developed by Michael Bath using operational warnings and advisories and Google Maps.


[Australian Severe Weather index] [Copyright Notice] [Email Contacts] [Search This Site] [Privacy Policy]
Document: tropical_cyclone_marcus.htm Updated: 11 March 2020